INFOJET
Metar trends

METAR/TAF(Classic format)(METAR/TAF Trend/History displayed directly below)
(enter CONUS apts starting with a K(eg. KMCC), enter Alaska/Hawaii apts starting with a P(eg. PANC))

Get Apt METAR code for recent obs


Get Apt METAR code for recent obs + Direct NWS Link (if METAR history doesn't display (which is often)


FAA Surface Weather Observation Stations ASOS/AWOS Readings with Map


NOAA ASOS Recent Observation History (click to select airport code)






SAC METAR history (last 5 updates)

FTUS46 KSTO 142327
 TAFSAC
 TAF
 KSAC 142327Z 1500/1524 VRB05KT P6SM VCSH BKN050
      FM150900 VRB05KT P6SM FEW050
      FM151300 VRB03KT 2SM BR FEW050
      FM151800 31004KT P6SM FEW250=

Recent Observations METAR KSAC 150355Z AUTO 24010KT 10SM FEW065 BKN085 11/06 A2998 METAR KSAC 150353Z 24011KT 10SM FEW065 BKN085 11/06 A2998 AO2 SLP150 T01110056 METAR KSAC 150350Z AUTO 24010KT 10SM SCT065 BKN080 BKN095 11/06 A2998 METAR KSAC 150345Z AUTO 24011KT 10SM SCT070 BKN095 11/06 A2998 METAR KSAC 150340Z AUTO 23011KT 10SM BKN065 BKN100 11/06 A2998




AvnWthrCntr_BCAWS

ADDS - METARS form results

Aviation Digital Data Service (ADDS)

Output produced by METARs form (0410 UTC 15 December 2019)
found at http://bcaws.aviationweather.gov/metar/data/
 
KSAC 150353Z 24011KT 10SM FEW065 BKN085 11/06 A2998 RMK AO2 SLP150 T01110056
KSAC 150253Z 23011KT 10SM BKN075 BKN095 BKN110 12/06 A2997 RMK AO2 SLP148 T01170061 56010
KSAC 150153Z 23010KT 10SM OVC080 12/07 A2997 RMK AO2 SLP149 T01220067
KSAC 150053Z 16004KT 10SM BKN110 13/07 A2997 RMK AO2 SLP150 T01330067
KSAC 142353Z 20005KT 10SM BKN070 14/07 A3000 RMK AO2 SLP158 T01390067 10150 20117 56011
KSAC 142253Z 00000KT 10SM BKN055 15/07 A3001 RMK AO2 SLP161 T01500067
KSAC 142327Z 1500/1524 VRB05KT P6SM VCSH BKN050 
     FM150900 VRB05KT P6SM FEW050 
     FM151300 VRB03KT 2SM BR FEW050 
     FM151800 31004KT P6SM FEW250
       




5 min APT wthr

CWSU Observations






RELOAD current METAR trend





METAR Numeric Codes (usually listed after RMK)

1xxxxx___6-hr maximum temp(2nd digit=0 is positive, 1 is negative)(eg. 10405 = +40.5 degrees Celsius)

2xxxxx___6-hr minimum temp (eg. 21337 = -33.7 degrees Celsius)

4/xxx___Total snow depth in inches (eg. 4/020 = snow depth of 20 inches on ground)

4xxxxxxxx___24-hr maximum/minimum temperatures, 2nd and sixth digits equal 0 for positive and 1 for negative (eg. 401551095 = 24-hr maximum temp of +15.5 degrees Celsius and a 24-hr minimum temp of -9.5 degrees Celsius)

5xxxx___3 hour pressure tendency. The second digit gives the tendency/trend: 0–3 is rising, 4 is steady and 5–8 is falling , the last 3 digits give the pressure change in tenths of a millibar in the last 3 hours. (eg 50009 indicates a rising pressure tendency/trend of 0.9 millibars.)

6xxxx___3 or 6 hour precipitation amount. The last 4 digits are the inches of rain in hundredths. (eg. 60200 = 2 inches of rain)

7xxxx___24-hour precipitation amount. The last 4 digits are the inches of rain in hundredths. (eg. 70500 = 5 inches of rain)

8/xxx___Cloud cover using WMO code. Three digit code follows the /. Lower numbers are for clearer skies, high numbers are for overcast. (I have not seen this in the NorCal airport METARs yet).

98xxx___Duration of sunshine in minutes. The last three digits after 98 are minutes. (eg. 98120 = 120 minutes of sunshine)

931xxx___Snowfall in the last 6-hours. The last three digits display snowfall in inches and tenths. (eg. 931515 = 51.5 inches of snowfall)

933xxx___Liquid water equivalent of the snow (SWE). The last three digits display liquid water equivalent of snow in inches and tenths (eg. 933055 = 5.5 inches of liquid water in snow)


Other METAR codes
SLP155 = current barometric pressure extrapolated to sea level (SLP155 equals 1015.5 hPa)

Pxxxx = liquid-equivalent precipitation accumulated during the last hour to hundredths of inches (P0050 = .5 inch of rain in the past hour)

Txxxxxxxx is the current Temperature and Dew point. The first 4 digits are temperature. The second 4 digits are Dew Point. The first digit of each group is either 0 for above zero Celsius or 1 for below zero Celsius. (eq. T00251015 = Temp +2.5C, Dew Pt -1.5C)







KSAC





KSMF





KMHR





KMCC





KEDU





KBLU





KTRK





KTVL





KRNO





KCEC





KPDX





KSEA





William R Fairchild International (Port Angeles, WA Intl Apt) (KCLM)